Hub


Voltar

 INFORMAÇÕES METEOROLÓGICAS

METAR FOR LFLS


ADDS - METARS form results

(2047 UTC 16 February 2019)
Data provider http://aviationweather.gov/metar/data/
 
METAR text: LFLS 162030Z AUTO 14004KT 100V190 CAVOK 08/M03 Q1028
Conditions at: LFLS (GRENOBLE/ST. GEO, FR) observed 2030 UTC 16 February 2019
Temperature: 8.0°C (46°F)
Dewpoint: -3.0°C (27°F) [RH = 46%]
Pressure (altimeter): 30.35 inches Hg (1028.0 mb)
Winds: from the SE (140 degrees) at 5 MPH (4 knots; 2.1 m/s)
Visibility: 6 or more miles (10+ km)
Ceiling: ceiling and visibility are OK
Clouds: unknown
Weather: no significant weather observed at this time

METAR text: LFLS 162000Z AUTO VRB03KT CAVOK 09/M03 Q1028 NOSIG
Conditions at: LFLS (GRENOBLE/ST. GEO, FR) observed 2000 UTC 16 February 2019
Temperature: 9.0°C (48°F)
Dewpoint: -3.0°C (27°F) [RH = 43%]
Pressure (altimeter): 30.35 inches Hg (1028.0 mb)
Winds: variable direction winds at 3 MPH (3 knots; 1.5 m/s)
Visibility: 6 or more miles (10+ km)
Ceiling: ceiling and visibility are OK
Clouds: unknown
Weather: no significant weather observed at this time

Forecast for: LFLS (GRENOBLE/ST. GEO, FR)
Text: TAF LFLS 161400Z 1615/1715 20007KT CAVOK
Forecast period: 1500 UTC 16 February 2019 to 1500 UTC 17 February 2019
Forecast type: FROM: standard forecast or significant change
Winds: from the SSW (200 degrees) at 8 MPH (7 knots; 3.6 m/s)
Visibility: 6 or more miles 10+ km)
Ceiling: unknown
Clouds: missing
Weather: NSW  (no significant weather)
Text: TEMPO 1621/1711 07005KT
Forecast period: 2100 UTC 16 February 2019 to 1100 UTC 17 February 2019
Forecast type: TEMPORARY: The following changes expected for less than half the time period
Winds: from the ENE (70 degrees) at 6 MPH (5 knots; 2.6 m/s)
Visibility: missing
Ceiling: unknown
Clouds: missing
Weather: no significant weather forecast for this period


 MAPA DO AEROPORTO


 INFORMAÇÕES DA PISTA

Pista 09 Tamanho da pista 10007 ft Largura da pista 148 ft
Elevação da pista 1224 ft Ranhura da pista 0 ft Proa da pista 90
Pista 27 Tamanho da pista 10007 ft Largura da pista 148 ft
Elevação da pista 1302 ft Ranhura da pista 0 ft Proa da pista 270

 FREQUÊNCIAS DO AEROPORTO

Tipo APP Nome GRENOBLE A Frequência 119.3 MHZ
Tipo ATIS Nome GRENOBLE A Frequência 125.725 MHZ
Tipo GND Nome GRENOBLE G Frequência 121.925 MHZ
Tipo TWR Nome GRENOBLE T Frequência 119.3 MHZ

 AUXÍLIOS DE NAVEGAÇÃO PRÓXIMOS AO AEROPORTO